sensor_id;sensor_type;location;lat;lon;timestamp;temperature;humidity
19734;DHT22;10018;51.230;7.860;2022-09-17T00:01:51;10.50;99.90
19734;DHT22;10018;51.230;7.860;2022-09-17T00:04:17;10.50;99.90
19734;DHT22;10018;51.230;7.860;2022-09-17T00:06:43;10.50;99.90
19734;DHT22;10018;51.230;7.860;2022-09-17T00:09:09;10.50;99.90
19734;DHT22;10018;51.230;7.860;2022-09-17T00:11:38;10.50;99.90
19734;DHT22;10018;51.230;7.860;2022-09-17T00:14:05;10.50;99.90
19734;DHT22;10018;51.230;7.860;2022-09-17T00:16:34;10.50;99.90
19734;DHT22;10018;51.230;7.860;2022-09-17T00:19:02;10.50;99.90
19734;DHT22;10018;51.230;7.860;2022-09-17T00:21:28;10.50;99.90
19734;DHT22;10018;51.230;7.860;2022-09-17T00:23:56;10.50;99.90
19734;DHT22;10018;51.230;7.860;2022-09-17T00:26:22;10.50;99.90
19734;DHT22;10018;51.230;7.860;2022-09-17T00:28:49;10.50;99.90
19734;DHT22;10018;51.230;7.860;2022-09-17T00:31:15;10.50;99.90
19734;DHT22;10018;51.230;7.860;2022-09-17T00:33:40;10.40;99.90
19734;DHT22;10018;51.230;7.860;2022-09-17T00:36:07;10.40;99.90
19734;DHT22;10018;51.230;7.860;2022-09-17T00:38:33;10.40;99.90
19734;DHT22;10018;51.230;7.860;2022-09-17T00:40:59;10.40;99.90
19734;DHT22;10018;51.230;7.860;2022-09-17T00:43:52;10.40;99.90
19734;DHT22;10018;51.230;7.860;2022-09-17T00:46:37;10.40;99.90
19734;DHT22;10018;51.230;7.860;2022-09-17T00:49:17;10.40;99.90
19734;DHT22;10018;51.230;7.860;2022-09-17T00:51:51;10.40;99.90
19734;DHT22;10018;51.230;7.860;2022-09-17T00:54:19;10.40;99.90
19734;DHT22;10018;51.230;7.860;2022-09-17T00:56:45;10.40;99.90
19734;DHT22;10018;51.230;7.860;2022-09-17T00:59:11;10.40;99.90
19734;DHT22;10018;51.230;7.860;2022-09-17T01:01:37;10.40;99.90
19734;DHT22;10018;51.230;7.860;2022-09-17T01:04:03;10.40;99.90
19734;DHT22;10018;51.230;7.860;2022-09-17T01:06:40;10.40;99.90
19734;DHT22;10018;51.230;7.860;2022-09-17T01:09:25;10.40;99.90
19734;DHT22;10018;51.230;7.860;2022-09-17T01:18:27;10.50;99.90
19734;DHT22;10018;51.230;7.860;2022-09-17T01:24:16;10.50;99.90
19734;DHT22;10018;51.230;7.860;2022-09-17T01:30:32;10.50;99.90
19734;DHT22;10018;51.230;7.860;2022-09-17T01:39:26;10.50;99.90
19734;DHT22;10018;51.230;7.860;2022-09-17T01:41:50;10.40;99.90
19734;DHT22;10018;51.230;7.860;2022-09-17T01:44:26;10.40;99.90
19734;DHT22;10018;51.230;7.860;2022-09-17T01:47:17;10.40;99.90
19734;DHT22;10018;51.230;7.860;2022-09-17T01:49:40;10.40;99.90
19734;DHT22;10018;51.230;7.860;2022-09-17T01:52:08;10.30;99.90
19734;DHT22;10018;51.230;7.860;2022-09-17T01:54:46;10.30;99.90
19734;DHT22;10018;51.230;7.860;2022-09-17T01:59:53;10.30;99.90
19734;DHT22;10018;51.230;7.860;2022-09-17T02:02:28;10.30;99.90
19734;DHT22;10018;51.230;7.860;2022-09-17T02:05:04;10.30;99.90
19734;DHT22;10018;51.230;7.860;2022-09-17T02:07:32;10.30;99.90
19734;DHT22;10018;51.230;7.860;2022-09-17T02:10:05;10.30;99.90
19734;DHT22;10018;51.230;7.860;2022-09-17T02:12:36;10.20;99.90
19734;DHT22;10018;51.230;7.860;2022-09-17T02:15:08;10.20;99.90
19734;DHT22;10018;51.230;7.860;2022-09-17T02:17:40;10.20;99.90
19734;DHT22;10018;51.230;7.860;2022-09-17T02:20:09;10.30;99.90
19734;DHT22;10018;51.230;7.860;2022-09-17T02:22:51;10.20;99.90
19734;DHT22;10018;51.230;7.860;2022-09-17T02:28:02;10.20;99.90
19734;DHT22;10018;51.230;7.860;2022-09-17T02:30:30;10.20;99.90
19734;DHT22;10018;51.230;7.860;2022-09-17T02:32:56;10.20;99.90
19734;DHT22;10018;51.230;7.860;2022-09-17T02:35:22;10.20;99.90
19734;DHT22;10018;51.230;7.860;2022-09-17T02:37:47;10.20;99.90
19734;DHT22;10018;51.230;7.860;2022-09-17T02:40:15;10.10;99.90
19734;DHT22;10018;51.230;7.860;2022-09-17T02:42:53;10.10;99.90
19734;DHT22;10018;51.230;7.860;2022-09-17T02:57:09;10.20;99.90
19734;DHT22;10018;51.230;7.860;2022-09-17T03:00:06;10.20;99.90
19734;DHT22;10018;51.230;7.860;2022-09-17T03:02:46;10.20;99.90
19734;DHT22;10018;51.230;7.860;2022-09-17T03:05:13;10.30;99.90
19734;DHT22;10018;51.230;7.860;2022-09-17T03:07:41;10.20;99.90
19734;DHT22;10018;51.230;7.860;2022-09-17T03:10:06;10.30;99.90
19734;DHT22;10018;51.230;7.860;2022-09-17T03:12:33;10.30;99.90
19734;DHT22;10018;51.230;7.860;2022-09-17T03:14:59;10.20;99.90
19734;DHT22;10018;51.230;7.860;2022-09-17T03:17:24;10.20;99.90
19734;DHT22;10018;51.230;7.860;2022-09-17T03:19:50;10.20;99.90
19734;DHT22;10018;51.230;7.860;2022-09-17T03:22:16;10.20;99.90
19734;DHT22;10018;51.230;7.860;2022-09-17T03:24:41;10.20;99.90
19734;DHT22;10018;51.230;7.860;2022-09-17T03:27:07;10.20;99.90
19734;DHT22;10018;51.230;7.860;2022-09-17T03:29:32;10.20;99.90
19734;DHT22;10018;51.230;7.860;2022-09-17T03:31:58;10.20;99.90
19734;DHT22;10018;51.230;7.860;2022-09-17T03:34:24;10.30;99.90
19734;DHT22;10018;51.230;7.860;2022-09-17T03:36:50;10.20;99.90
19734;DHT22;10018;51.230;7.860;2022-09-17T03:39:15;10.20;99.90
19734;DHT22;10018;51.230;7.860;2022-09-17T03:41:41;10.20;99.90
19734;DHT22;10018;51.230;7.860;2022-09-17T03:44:06;10.30;99.90
19734;DHT22;10018;51.230;7.860;2022-09-17T03:46:32;10.20;99.90
19734;DHT22;10018;51.230;7.860;2022-09-17T03:48:57;10.20;99.90
19734;DHT22;10018;51.230;7.860;2022-09-17T03:51:23;10.30;99.90
19734;DHT22;10018;51.230;7.860;2022-09-17T03:53:48;10.30;99.90
19734;DHT22;10018;51.230;7.860;2022-09-17T03:56:14;10.30;99.90
19734;DHT22;10018;51.230;7.860;2022-09-17T03:58:39;10.30;99.90
19734;DHT22;10018;51.230;7.860;2022-09-17T04:01:05;10.30;99.90
19734;DHT22;10018;51.230;7.860;2022-09-17T04:03:31;10.40;99.90
19734;DHT22;10018;51.230;7.860;2022-09-17T04:05:56;10.40;99.90
19734;DHT22;10018;51.230;7.860;2022-09-17T04:08:22;10.40;99.90
19734;DHT22;10018;51.230;7.860;2022-09-17T04:10:48;10.30;99.90
19734;DHT22;10018;51.230;7.860;2022-09-17T04:13:15;10.30;99.90
19734;DHT22;10018;51.230;7.860;2022-09-17T04:15:41;10.30;99.90
19734;DHT22;10018;51.230;7.860;2022-09-17T04:18:07;10.30;99.90
19734;DHT22;10018;51.230;7.860;2022-09-17T04:20:33;10.30;99.90
19734;DHT22;10018;51.230;7.860;2022-09-17T04:22:58;10.30;99.90
19734;DHT22;10018;51.230;7.860;2022-09-17T04:25:24;10.30;99.90
19734;DHT22;10018;51.230;7.860;2022-09-17T04:27:49;10.20;99.90
19734;DHT22;10018;51.230;7.860;2022-09-17T04:30:15;10.30;99.90
19734;DHT22;10018;51.230;7.860;2022-09-17T04:32:42;10.30;99.90
19734;DHT22;10018;51.230;7.860;2022-09-17T04:35:08;10.20;99.90
19734;DHT22;10018;51.230;7.860;2022-09-17T04:37:34;10.30;99.90
19734;DHT22;10018;51.230;7.860;2022-09-17T04:39:59;10.20;99.90
19734;DHT22;10018;51.230;7.860;2022-09-17T04:42:25;10.20;99.90
19734;DHT22;10018;51.230;7.860;2022-09-17T04:44:50;10.20;99.90
19734;DHT22;10018;51.230;7.860;2022-09-17T04:47:16;10.20;99.90
19734;DHT22;10018;51.230;7.860;2022-09-17T04:49:41;10.20;99.90
19734;DHT22;10018;51.230;7.860;2022-09-17T04:52:07;10.20;99.90
19734;DHT22;10018;51.230;7.860;2022-09-17T04:54:32;10.20;99.90
19734;DHT22;10018;51.230;7.860;2022-09-17T04:56:58;10.20;99.90
19734;DHT22;10018;51.230;7.860;2022-09-17T04:59:24;10.10;99.90
19734;DHT22;10018;51.230;7.860;2022-09-17T05:01:49;10.10;99.90
19734;DHT22;10018;51.230;7.860;2022-09-17T05:04:15;10.10;99.90
19734;DHT22;10018;51.230;7.860;2022-09-17T05:06:40;10.10;99.90
19734;DHT22;10018;51.230;7.860;2022-09-17T05:09:06;10.10;99.90
19734;DHT22;10018;51.230;7.860;2022-09-17T05:11:32;10.10;99.90
19734;DHT22;10018;51.230;7.860;2022-09-17T05:13:57;10.10;99.90
19734;DHT22;10018;51.230;7.860;2022-09-17T05:16:23;10.10;99.90
19734;DHT22;10018;51.230;7.860;2022-09-17T05:18:48;10.10;99.90
19734;DHT22;10018;51.230;7.860;2022-09-17T05:21:16;10.10;99.90
19734;DHT22;10018;51.230;7.860;2022-09-17T05:23:42;10.20;99.90
19734;DHT22;10018;51.230;7.860;2022-09-17T05:26:07;10.10;99.90
19734;DHT22;10018;51.230;7.860;2022-09-17T05:28:33;10.20;99.90
19734;DHT22;10018;51.230;7.860;2022-09-17T05:30:59;10.20;99.90
19734;DHT22;10018;51.230;7.860;2022-09-17T05:33:25;10.20;99.90
19734;DHT22;10018;51.230;7.860;2022-09-17T05:35:50;10.20;99.90
19734;DHT22;10018;51.230;7.860;2022-09-17T05:38:16;10.10;99.90
19734;DHT22;10018;51.230;7.860;2022-09-17T05:40:45;10.20;99.90
19734;DHT22;10018;51.230;7.860;2022-09-17T05:43:11;10.10;99.90
19734;DHT22;10018;51.230;7.860;2022-09-17T05:45:37;10.20;99.90
19734;DHT22;10018;51.230;7.860;2022-09-17T05:48:05;10.20;99.90
19734;DHT22;10018;51.230;7.860;2022-09-17T05:50:31;10.20;99.90
19734;DHT22;10018;51.230;7.860;2022-09-17T05:53:02;10.20;99.90
19734;DHT22;10018;51.230;7.860;2022-09-17T05:55:28;10.20;99.90
19734;DHT22;10018;51.230;7.860;2022-09-17T05:57:54;10.30;99.90
19734;DHT22;10018;51.230;7.860;2022-09-17T06:00:19;10.30;99.90
19734;DHT22;10018;51.230;7.860;2022-09-17T06:02:45;10.30;99.90
19734;DHT22;10018;51.230;7.860;2022-09-17T06:05:10;10.40;99.90
19734;DHT22;10018;51.230;7.860;2022-09-17T06:07:37;10.40;99.90
19734;DHT22;10018;51.230;7.860;2022-09-17T06:10:04;10.50;99.90
19734;DHT22;10018;51.230;7.860;2022-09-17T06:12:29;10.50;99.90
19734;DHT22;10018;51.230;7.860;2022-09-17T06:14:55;10.50;99.90
19734;DHT22;10018;51.230;7.860;2022-09-17T06:17:21;10.60;99.90
19734;DHT22;10018;51.230;7.860;2022-09-17T06:19:46;10.60;99.90
19734;DHT22;10018;51.230;7.860;2022-09-17T06:22:12;10.60;99.90
19734;DHT22;10018;51.230;7.860;2022-09-17T06:24:37;10.60;99.90
19734;DHT22;10018;51.230;7.860;2022-09-17T06:27:03;10.70;99.90
19734;DHT22;10018;51.230;7.860;2022-09-17T06:29:29;10.70;99.90
19734;DHT22;10018;51.230;7.860;2022-09-17T06:31:54;10.70;99.90
19734;DHT22;10018;51.230;7.860;2022-09-17T06:34:20;10.70;99.90
19734;DHT22;10018;51.230;7.860;2022-09-17T06:36:47;10.70;99.90
19734;DHT22;10018;51.230;7.860;2022-09-17T06:39:13;10.60;99.90
19734;DHT22;10018;51.230;7.860;2022-09-17T06:41:40;10.70;99.90
19734;DHT22;10018;51.230;7.860;2022-09-17T06:44:07;10.80;99.90
19734;DHT22;10018;51.230;7.860;2022-09-17T06:46:32;10.80;99.90
19734;DHT22;10018;51.230;7.860;2022-09-17T06:48:58;10.80;99.90
19734;DHT22;10018;51.230;7.860;2022-09-17T06:51:23;10.80;99.90
19734;DHT22;10018;51.230;7.860;2022-09-17T06:53:49;10.80;99.90
19734;DHT22;10018;51.230;7.860;2022-09-17T06:56:14;10.90;99.90
19734;DHT22;10018;51.230;7.860;2022-09-17T06:58:40;10.80;99.90
19734;DHT22;10018;51.230;7.860;2022-09-17T07:01:07;10.90;99.90
19734;DHT22;10018;51.230;7.860;2022-09-17T07:03:33;10.90;99.90
19734;DHT22;10018;51.230;7.860;2022-09-17T07:05:59;11.00;99.90
19734;DHT22;10018;51.230;7.860;2022-09-17T07:08:24;11.10;99.90
19734;DHT22;10018;51.230;7.860;2022-09-17T07:10:56;11.30;99.90
19734;DHT22;10018;51.230;7.860;2022-09-17T07:13:23;11.40;99.90
19734;DHT22;10018;51.230;7.860;2022-09-17T07:15:53;11.50;99.90
19734;DHT22;10018;51.230;7.860;2022-09-17T07:18:19;11.60;99.90
19734;DHT22;10018;51.230;7.860;2022-09-17T07:21:01;11.70;99.90
19734;DHT22;10018;51.230;7.860;2022-09-17T07:23:28;11.70;99.90
19734;DHT22;10018;51.230;7.860;2022-09-17T07:25:56;11.70;99.90
19734;DHT22;10018;51.230;7.860;2022-09-17T07:28:23;11.60;99.90
19734;DHT22;10018;51.230;7.860;2022-09-17T07:30:49;11.50;99.90
19734;DHT22;10018;51.230;7.860;2022-09-17T07:33:16;11.30;99.90
19734;DHT22;10018;51.230;7.860;2022-09-17T07:35:42;11.30;99.90
19734;DHT22;10018;51.230;7.860;2022-09-17T07:38:08;11.20;99.90
19734;DHT22;10018;51.230;7.860;2022-09-17T07:40:33;11.20;99.90
19734;DHT22;10018;51.230;7.860;2022-09-17T07:42:59;11.10;99.90
19734;DHT22;10018;51.230;7.860;2022-09-17T07:45:24;11.00;99.90
19734;DHT22;10018;51.230;7.860;2022-09-17T07:47:50;11.10;99.90
19734;DHT22;10018;51.230;7.860;2022-09-17T07:50:15;11.10;99.90
19734;DHT22;10018;51.230;7.860;2022-09-17T07:52:45;11.10;99.90
19734;DHT22;10018;51.230;7.860;2022-09-17T07:55:12;11.20;99.90
19734;DHT22;10018;51.230;7.860;2022-09-17T07:57:37;11.20;99.90
19734;DHT22;10018;51.230;7.860;2022-09-17T08:00:03;11.20;99.90
19734;DHT22;10018;51.230;7.860;2022-09-17T08:02:29;11.20;99.90
19734;DHT22;10018;51.230;7.860;2022-09-17T08:04:54;11.20;99.90
19734;DHT22;10018;51.230;7.860;2022-09-17T08:07:21;11.20;99.90
19734;DHT22;10018;51.230;7.860;2022-09-17T08:09:47;11.30;99.90
19734;DHT22;10018;51.230;7.860;2022-09-17T08:12:12;11.40;99.90
19734;DHT22;10018;51.230;7.860;2022-09-17T08:14:38;11.50;99.90
19734;DHT22;10018;51.230;7.860;2022-09-17T08:17:06;11.70;99.90
19734;DHT22;10018;51.230;7.860;2022-09-17T08:19:31;11.80;99.90
19734;DHT22;10018;51.230;7.860;2022-09-17T08:21:57;11.80;99.90
19734;DHT22;10018;51.230;7.860;2022-09-17T08:24:22;12.00;99.90
19734;DHT22;10018;51.230;7.860;2022-09-17T08:26:48;12.10;99.90
19734;DHT22;10018;51.230;7.860;2022-09-17T08:29:13;12.10;99.90
19734;DHT22;10018;51.230;7.860;2022-09-17T08:31:39;12.10;99.90
19734;DHT22;10018;51.230;7.860;2022-09-17T08:34:08;12.10;99.90
19734;DHT22;10018;51.230;7.860;2022-09-17T08:36:34;12.10;99.90
19734;DHT22;10018;51.230;7.860;2022-09-17T08:38:59;12.30;99.90
19734;DHT22;10018;51.230;7.860;2022-09-17T08:41:47;12.40;99.90
19734;DHT22;10018;51.230;7.860;2022-09-17T08:46:51;12.70;99.90
19734;DHT22;10018;51.230;7.860;2022-09-17T08:49:31;12.70;99.90
19734;DHT22;10018;51.230;7.860;2022-09-17T08:52:08;12.80;99.90
19734;DHT22;10018;51.230;7.860;2022-09-17T09:00:38;12.70;99.90
19734;DHT22;10018;51.230;7.860;2022-09-17T09:03:21;12.80;99.90
19734;DHT22;10018;51.230;7.860;2022-09-17T09:05:50;12.90;99.90
19734;DHT22;10018;51.230;7.860;2022-09-17T09:08:33;13.00;99.90
19734;DHT22;10018;51.230;7.860;2022-09-17T09:11:31;13.00;99.90
19734;DHT22;10018;51.230;7.860;2022-09-17T09:14:22;12.80;99.90
19734;DHT22;10018;51.230;7.860;2022-09-17T09:16:45;12.70;99.90
19734;DHT22;10018;51.230;7.860;2022-09-17T09:19:24;12.70;99.90
19734;DHT22;10018;51.230;7.860;2022-09-17T09:22:01;12.80;99.90
19734;DHT22;10018;51.230;7.860;2022-09-17T09:24:40;12.90;99.90
19734;DHT22;10018;51.230;7.860;2022-09-17T09:30:11;13.10;99.90
19734;DHT22;10018;51.230;7.860;2022-09-17T09:32:57;13.10;99.90
19734;DHT22;10018;51.230;7.860;2022-09-17T09:35:25;13.00;99.90
19734;DHT22;10018;51.230;7.860;2022-09-17T09:43:35;12.80;99.90
19734;DHT22;10018;51.230;7.860;2022-09-17T09:51:39;12.90;99.90
19734;DHT22;10018;51.230;7.860;2022-09-17T09:54:36;13.00;99.90
19734;DHT22;10018;51.230;7.860;2022-09-17T09:57:12;13.10;99.90
19734;DHT22;10018;51.230;7.860;2022-09-17T09:59:38;13.10;99.90
19734;DHT22;10018;51.230;7.860;2022-09-17T10:02:06;13.10;99.90
19734;DHT22;10018;51.230;7.860;2022-09-17T10:04:32;13.10;99.90
19734;DHT22;10018;51.230;7.860;2022-09-17T10:07:01;13.10;99.90
19734;DHT22;10018;51.230;7.860;2022-09-17T10:09:31;13.20;99.90
19734;DHT22;10018;51.230;7.860;2022-09-17T10:12:14;13.30;99.90
19734;DHT22;10018;51.230;7.860;2022-09-17T10:14:41;13.40;99.90
19734;DHT22;10018;51.230;7.860;2022-09-17T10:17:15;13.30;99.90
19734;DHT22;10018;51.230;7.860;2022-09-17T10:19:42;13.40;99.90
19734;DHT22;10018;51.230;7.860;2022-09-17T10:22:29;13.40;99.90
19734;DHT22;10018;51.230;7.860;2022-09-17T10:24:57;13.60;99.90
19734;DHT22;10018;51.230;7.860;2022-09-17T10:27:24;13.60;99.90
19734;DHT22;10018;51.230;7.860;2022-09-17T10:29:56;13.40;99.90
19734;DHT22;10018;51.230;7.860;2022-09-17T10:32:23;13.40;99.90
19734;DHT22;10018;51.230;7.860;2022-09-17T10:35:04;13.40;99.90
19734;DHT22;10018;51.230;7.860;2022-09-17T10:37:51;13.60;99.90
19734;DHT22;10018;51.230;7.860;2022-09-17T10:42:43;13.90;99.90
19734;DHT22;10018;51.230;7.860;2022-09-17T10:45:23;14.00;99.90
19734;DHT22;10018;51.230;7.860;2022-09-17T10:47:49;14.20;99.90
19734;DHT22;10018;51.230;7.860;2022-09-17T10:50:31;14.50;99.90
19734;DHT22;10018;51.230;7.860;2022-09-17T10:53:00;14.40;99.90
19734;DHT22;10018;51.230;7.860;2022-09-17T10:58:16;14.10;99.90
19734;DHT22;10018;51.230;7.860;2022-09-17T11:00:59;14.10;99.90
19734;DHT22;10018;51.230;7.860;2022-09-17T11:09:02;13.80;99.90
19734;DHT22;10018;51.230;7.860;2022-09-17T11:12:01;13.80;99.90
19734;DHT22;10018;51.230;7.860;2022-09-17T11:14:49;14.00;99.90
19734;DHT22;10018;51.230;7.860;2022-09-17T11:23:18;14.80;99.90
19734;DHT22;10018;51.230;7.860;2022-09-17T11:26:07;14.50;99.90
19734;DHT22;10018;51.230;7.860;2022-09-17T11:31:47;14.40;99.90
19734;DHT22;10018;51.230;7.860;2022-09-17T11:34:28;14.40;99.90
19734;DHT22;10018;51.230;7.860;2022-09-17T11:37:10;14.40;99.90
19734;DHT22;10018;51.230;7.860;2022-09-17T11:39:57;14.70;99.90
19734;DHT22;10018;51.230;7.860;2022-09-17T11:42:35;14.70;99.90
19734;DHT22;10018;51.230;7.860;2022-09-17T11:45:05;14.60;99.90
19734;DHT22;10018;51.230;7.860;2022-09-17T11:47:39;14.50;99.90
19734;DHT22;10018;51.230;7.860;2022-09-17T11:50:23;14.10;99.90
19734;DHT22;10018;51.230;7.860;2022-09-17T11:53:14;13.90;99.90
19734;DHT22;10018;51.230;7.860;2022-09-17T11:56:01;13.60;99.90
19734;DHT22;10018;51.230;7.860;2022-09-17T11:58:42;13.50;99.90
19734;DHT22;10018;51.230;7.860;2022-09-17T12:01:34;13.70;99.90
19734;DHT22;10018;51.230;7.860;2022-09-17T12:04:01;14.00;99.90
19734;DHT22;10018;51.230;7.860;2022-09-17T12:06:43;14.10;99.90
19734;DHT22;10018;51.230;7.860;2022-09-17T12:09:25;13.90;99.90
19734;DHT22;10018;51.230;7.860;2022-09-17T12:12:00;14.00;99.90
19734;DHT22;10018;51.230;7.860;2022-09-17T12:14:45;14.10;99.90
19734;DHT22;10018;51.230;7.860;2022-09-17T12:17:19;14.10;99.90
19734;DHT22;10018;51.230;7.860;2022-09-17T12:19:58;13.90;99.90
19734;DHT22;10018;51.230;7.860;2022-09-17T12:22:29;13.70;99.90
19734;DHT22;10018;51.230;7.860;2022-09-17T12:25:00;13.70;99.90
19734;DHT22;10018;51.230;7.860;2022-09-17T12:27:56;13.80;99.90
19734;DHT22;10018;51.230;7.860;2022-09-17T12:30:33;13.80;99.90
19734;DHT22;10018;51.230;7.860;2022-09-17T12:33:41;13.90;99.90
19734;DHT22;10018;51.230;7.860;2022-09-17T12:44:32;14.10;99.90
19734;DHT22;10018;51.230;7.860;2022-09-17T12:47:16;14.30;99.90
19734;DHT22;10018;51.230;7.860;2022-09-17T12:50:00;14.50;99.90
19734;DHT22;10018;51.230;7.860;2022-09-17T12:58:10;14.90;99.90
19734;DHT22;10018;51.230;7.860;2022-09-17T13:00:45;15.10;99.90
19734;DHT22;10018;51.230;7.860;2022-09-17T13:03:45;15.00;99.90
19734;DHT22;10018;51.230;7.860;2022-09-17T13:12:13;14.20;99.90
19734;DHT22;10018;51.230;7.860;2022-09-17T13:17:50;13.70;99.90
19734;DHT22;10018;51.230;7.860;2022-09-17T13:20:30;13.60;99.90
19734;DHT22;10018;51.230;7.860;2022-09-17T13:22:57;13.50;99.90
19734;DHT22;10018;51.230;7.860;2022-09-17T13:25:24;13.50;99.90
19734;DHT22;10018;51.230;7.860;2022-09-17T13:28:07;13.60;99.90
19734;DHT22;10018;51.230;7.860;2022-09-17T13:30:58;13.90;99.90
19734;DHT22;10018;51.230;7.860;2022-09-17T13:39:07;14.00;99.90
19734;DHT22;10018;51.230;7.860;2022-09-17T13:41:37;14.00;99.90
19734;DHT22;10018;51.230;7.860;2022-09-17T13:44:04;13.90;99.90
19734;DHT22;10018;51.230;7.860;2022-09-17T13:46:30;13.90;99.90
19734;DHT22;10018;51.230;7.860;2022-09-17T13:49:21;14.00;99.90
19734;DHT22;10018;51.230;7.860;2022-09-17T13:51:47;14.10;99.90
19734;DHT22;10018;51.230;7.860;2022-09-17T13:54:14;14.10;99.90
19734;DHT22;10018;51.230;7.860;2022-09-17T13:56:48;14.10;99.90
19734;DHT22;10018;51.230;7.860;2022-09-17T13:59:24;13.90;99.90
19734;DHT22;10018;51.230;7.860;2022-09-17T14:02:02;13.80;99.90
19734;DHT22;10018;51.230;7.860;2022-09-17T14:04:46;13.40;99.90
19734;DHT22;10018;51.230;7.860;2022-09-17T14:17:59;12.10;99.90
19734;DHT22;10018;51.230;7.860;2022-09-17T14:20:27;12.10;99.90
19734;DHT22;10018;51.230;7.860;2022-09-17T14:23:00;12.50;99.90
19734;DHT22;10018;51.230;7.860;2022-09-17T14:25:51;14.00;99.90
19734;DHT22;10018;51.230;7.860;2022-09-17T14:28:47;15.90;99.90
19734;DHT22;10018;51.230;7.860;2022-09-17T14:31:19;15.60;99.90
19734;DHT22;10018;51.230;7.860;2022-09-17T14:33:46;14.50;99.90
19734;DHT22;10018;51.230;7.860;2022-09-17T14:36:17;13.70;99.90
19734;DHT22;10018;51.230;7.860;2022-09-17T14:38:47;13.00;99.90
19734;DHT22;10018;51.230;7.860;2022-09-17T14:41:23;12.50;99.90
19734;DHT22;10018;51.230;7.860;2022-09-17T14:44:05;12.30;99.90
19734;DHT22;10018;51.230;7.860;2022-09-17T14:49:35;12.10;99.90
19734;DHT22;10018;51.230;7.860;2022-09-17T14:52:05;12.10;99.90
19734;DHT22;10018;51.230;7.860;2022-09-17T14:54:43;12.10;99.90
19734;DHT22;10018;51.230;7.860;2022-09-17T14:57:16;12.00;99.90
19734;DHT22;10018;51.230;7.860;2022-09-17T14:59:46;12.00;99.90
19734;DHT22;10018;51.230;7.860;2022-09-17T15:02:33;11.90;99.90
19734;DHT22;10018;51.230;7.860;2022-09-17T15:05:00;11.90;99.90
19734;DHT22;10018;51.230;7.860;2022-09-17T15:07:28;12.00;99.90
19734;DHT22;10018;51.230;7.860;2022-09-17T15:10:04;12.30;99.90
19734;DHT22;10018;51.230;7.860;2022-09-17T15:12:29;12.30;99.90
19734;DHT22;10018;51.230;7.860;2022-09-17T15:14:56;12.10;99.90
19734;DHT22;10018;51.230;7.860;2022-09-17T15:17:22;12.10;99.90
19734;DHT22;10018;51.230;7.860;2022-09-17T15:19:51;12.00;99.90
19734;DHT22;10018;51.230;7.860;2022-09-17T15:22:26;12.00;99.90
19734;DHT22;10018;51.230;7.860;2022-09-17T15:25:04;12.10;99.90
19734;DHT22;10018;51.230;7.860;2022-09-17T15:27:38;13.20;99.90
19734;DHT22;10018;51.230;7.860;2022-09-17T15:32:48;15.80;99.90
19734;DHT22;10018;51.230;7.860;2022-09-17T15:37:52;13.70;99.90
19734;DHT22;10018;51.230;7.860;2022-09-17T15:40:36;12.80;99.90
19734;DHT22;10018;51.230;7.860;2022-09-17T15:45:31;12.10;99.90
19734;DHT22;10018;51.230;7.860;2022-09-17T15:48:02;12.00;99.90
19734;DHT22;10018;51.230;7.860;2022-09-17T15:50:35;11.90;99.90
19734;DHT22;10018;51.230;7.860;2022-09-17T15:53:23;12.00;99.90
19734;DHT22;10018;51.230;7.860;2022-09-17T15:56:17;12.80;99.90
19734;DHT22;10018;51.230;7.860;2022-09-17T16:09:34;13.50;99.90
19734;DHT22;10018;51.230;7.860;2022-09-17T16:11:51;13.00;99.90
19734;DHT22;10018;51.230;7.860;2022-09-17T16:14:16;12.80;99.90
19734;DHT22;10018;51.230;7.860;2022-09-17T16:16:41;12.60;99.90
19734;DHT22;10018;51.230;7.860;2022-09-17T16:19:08;12.50;99.90
19734;DHT22;10018;51.230;7.860;2022-09-17T16:21:34;12.40;99.90
19734;DHT22;10018;51.230;7.860;2022-09-17T16:24:00;12.30;99.90
19734;DHT22;10018;51.230;7.860;2022-09-17T16:26:28;12.10;99.90
19734;DHT22;10018;51.230;7.860;2022-09-17T16:29:04;12.00;99.90
19734;DHT22;10018;51.230;7.860;2022-09-17T16:31:32;12.00;99.90
19734;DHT22;10018;51.230;7.860;2022-09-17T16:33:58;11.90;99.90
19734;DHT22;10018;51.230;7.860;2022-09-17T16:36:23;11.80;99.90
19734;DHT22;10018;51.230;7.860;2022-09-17T16:38:49;11.80;99.90
19734;DHT22;10018;51.230;7.860;2022-09-17T16:41:14;11.70;99.90
19734;DHT22;10018;51.230;7.860;2022-09-17T16:43:40;11.70;99.90
19734;DHT22;10018;51.230;7.860;2022-09-17T16:46:08;11.60;99.90
19734;DHT22;10018;51.230;7.860;2022-09-17T16:48:34;11.60;99.90
19734;DHT22;10018;51.230;7.860;2022-09-17T16:51:06;11.70;99.90
19734;DHT22;10018;51.230;7.860;2022-09-17T16:53:32;11.70;99.90
19734;DHT22;10018;51.230;7.860;2022-09-17T16:55:58;11.90;99.90
19734;DHT22;10018;51.230;7.860;2022-09-17T16:58:24;11.90;99.90
19734;DHT22;10018;51.230;7.860;2022-09-17T17:00:50;11.90;99.90
19734;DHT22;10018;51.230;7.860;2022-09-17T17:03:15;11.90;99.90
19734;DHT22;10018;51.230;7.860;2022-09-17T17:05:41;11.90;99.90
19734;DHT22;10018;51.230;7.860;2022-09-17T17:08:08;11.90;99.90
19734;DHT22;10018;51.230;7.860;2022-09-17T17:10:34;11.80;99.90
19734;DHT22;10018;51.230;7.860;2022-09-17T17:13:01;11.80;99.90
19734;DHT22;10018;51.230;7.860;2022-09-17T17:15:27;11.80;99.90
19734;DHT22;10018;51.230;7.860;2022-09-17T17:17:52;11.80;99.90
19734;DHT22;10018;51.230;7.860;2022-09-17T17:20:18;11.70;99.90
19734;DHT22;10018;51.230;7.860;2022-09-17T17:22:44;11.70;99.90
19734;DHT22;10018;51.230;7.860;2022-09-17T17:25:11;11.60;99.90
19734;DHT22;10018;51.230;7.860;2022-09-17T17:27:37;11.50;99.90
19734;DHT22;10018;51.230;7.860;2022-09-17T17:30:05;11.50;99.90
19734;DHT22;10018;51.230;7.860;2022-09-17T17:32:32;11.40;99.90
19734;DHT22;10018;51.230;7.860;2022-09-17T17:34:57;11.40;99.90
19734;DHT22;10018;51.230;7.860;2022-09-17T17:37:23;11.30;99.90
19734;DHT22;10018;51.230;7.860;2022-09-17T17:39:49;11.30;99.90
19734;DHT22;10018;51.230;7.860;2022-09-17T17:42:14;11.20;99.90
19734;DHT22;10018;51.230;7.860;2022-09-17T17:44:40;11.20;99.90
19734;DHT22;10018;51.230;7.860;2022-09-17T17:47:06;11.10;99.90
19734;DHT22;10018;51.230;7.860;2022-09-17T17:49:32;11.10;99.90
19734;DHT22;10018;51.230;7.860;2022-09-17T17:51:58;11.00;99.90
19734;DHT22;10018;51.230;7.860;2022-09-17T17:54:24;11.00;99.90
19734;DHT22;10018;51.230;7.860;2022-09-17T17:56:51;10.90;99.90
19734;DHT22;10018;51.230;7.860;2022-09-17T17:59:17;10.90;99.90
19734;DHT22;10018;51.230;7.860;2022-09-17T18:01:42;10.80;99.90
19734;DHT22;10018;51.230;7.860;2022-09-17T18:04:08;10.80;99.90
19734;DHT22;10018;51.230;7.860;2022-09-17T18:06:34;10.80;99.90
19734;DHT22;10018;51.230;7.860;2022-09-17T18:09:00;10.70;99.90
19734;DHT22;10018;51.230;7.860;2022-09-17T18:11:26;10.80;99.90